Time;durP1;ratioP1;P1;durP2;ratioP2;P2;SDS_P1;SDS_P2;PMS_P1;PMS_P2;Temp;Humidity;BMP_temperature;BMP_pressure;BME280_temperature;BME280_humidity;BME280_pressure;Samples;Min_cycle;Max_cycle;Signal;HPM_P1;HPM_P2
2022/07/20 00:00:37;;;;;;;1999.90;999.90;;;;;;;19.67;59.04;99083.44;10294012;23;20367;-80
2022/07/20 00:05:12;;;;;;;1999.90;999.90;;;;;;;19.65;58.98;99080.03;10330159;23;20116;-80
2022/07/20 00:13:43;;;;;;;1999.90;999.90;;;;;;;19.65;58.54;99087.94;10331959;23;20024;-80
2022/07/20 00:17:58;;;;;;;1999.90;999.90;;;;;;;19.65;59.85;99090.56;10334692;22;20089;-79
2022/07/20 00:22:03;;;;;;;1999.90;999.90;;;;;;;19.49;59.98;99082.47;10383217;22;20019;-81
2022/07/20 00:26:19;;;;;;;1999.90;999.90;;;;;;;19.55;61.44;99084.84;10382482;22;20085;-80
2022/07/20 00:30:29;;;;;;;1999.90;999.90;;;;;;;19.49;61.26;99076.34;10389691;22;20033;-79
2022/07/20 00:34:31;;;;;;;1999.90;999.90;;;;;;;19.38;61.27;99076.81;10329983;22;20414;-80
2022/07/20 00:38:38;;;;;;;1999.90;999.90;;;;;;;19.38;62.47;99078.59;10381394;22;20030;-80
2022/07/20 00:43:02;;;;;;;1999.90;999.90;;;;;;;19.31;61.84;99085.94;10382328;22;20110;-80
2022/07/20 00:47:17;;;;;;;1999.90;999.90;;;;;;;19.26;61.60;99077.41;10381799;22;20425;-80
2022/07/20 00:51:24;;;;;;;1999.90;999.90;;;;;;;19.27;62.07;99082.59;10355133;22;20070;-80
2022/07/20 00:55:30;;;;;;;1999.90;999.90;;;;;;;19.29;61.62;99075.47;10356044;22;20045;-80
2022/07/20 00:59:35;;;;;;;1999.90;999.90;;;;;;;19.31;61.70;99078.03;10354336;22;20012;-80
2022/07/20 01:03:40;;;;;;;1999.90;999.90;;;;;;;19.21;61.42;99074.09;10343458;22;20028;-80
2022/07/20 01:07:50;;;;;;;1999.90;999.90;;;;;;;19.05;61.65;99075.72;10397113;22;20483;-80
2022/07/20 01:12:10;;;;;;;1999.90;999.90;;;;;;;18.99;60.90;99079.47;10307317;22;20081;-80
2022/07/20 01:16:19;;;;;;;;;;;;;;;19.05;61.98;99079.22;10376232;22;20522;-79
2022/07/20 01:20:32;;;;;;;1999.90;999.90;;;;;;;18.95;61.17;99081.38;10382812;22;19970;-80
2022/07/20 01:25:11;;;;;;;1999.90;999.90;;;;;;;18.93;60.95;99077.09;10382198;22;20386;-80
2022/07/20 01:29:22;;;;;;;1999.90;999.90;;;;;;;18.92;60.93;99084.13;10398264;22;20015;-80
2022/07/20 01:34:08;;;;;;;1999.90;999.90;;;;;;;18.89;61.47;99084.28;10352201;22;20027;-80
2022/07/20 01:38:17;;;;;;;1999.90;999.90;;;;;;;18.86;62.22;99091.44;10355878;22;20035;-80
2022/07/20 01:42:42;;;;;;;1999.90;999.90;;;;;;;18.89;62.53;99092.16;10373798;22;20027;-80
2022/07/20 01:46:55;;;;;;;1999.90;999.90;;;;;;;18.90;62.35;99098.28;10341131;22;20106;-80
2022/07/20 01:51:17;;;;;;;1999.90;999.90;;;;;;;18.86;63.11;99089.69;10353100;22;20024;-80
2022/07/20 01:55:26;;;;;;;1999.90;999.90;;;;;;;18.80;63.04;99100.44;10329753;22;20027;-80
2022/07/20 01:59:35;;;;;;;1999.90;999.90;;;;;;;18.75;62.86;99101.56;10353334;22;20301;-80
2022/07/20 02:03:49;;;;;;;1999.90;999.90;;;;;;;18.80;63.31;99107.47;10372924;22;20027;-79
2022/07/20 02:08:17;;;;;;;1999.90;999.90;;;;;;;18.77;63.08;99102.34;10358967;22;20074;-79
2022/07/20 02:12:23;;;;;;;1999.90;999.90;;;;;;;18.70;63.41;99097.38;10403545;22;20055;-80
2022/07/20 02:16:32;;;;;;;1999.90;999.90;;;;;;;18.69;63.34;99110.56;10355006;22;20112;-80
2022/07/20 02:20:35;;;;;;;1999.90;999.90;;;;;;;18.57;63.61;99101.38;10358501;22;20020;-80
2022/07/20 02:24:43;;;;;;;1999.90;999.90;;;;;;;18.48;63.73;99107.00;10361092;22;20044;-80
2022/07/20 02:28:52;;;;;;;1999.90;999.90;;;;;;;18.39;64.52;99097.75;10359606;22;20030;-80
2022/07/20 02:32:57;;;;;;;1999.90;999.90;;;;;;;18.35;65.06;99096.16;10399991;22;20023;-80
2022/07/20 02:37:04;;;;;;;1999.90;999.90;;;;;;;18.32;64.34;99098.06;10361784;22;20034;-80
2022/07/20 02:41:10;;;;;;;1999.90;999.90;;;;;;;18.33;64.01;99095.38;10363489;22;20622;-80
2022/07/20 02:45:34;;;;;;;1999.90;999.90;;;;;;;18.31;64.08;99097.22;10378872;22;20058;-80
2022/07/20 02:49:48;;;;;;;1999.90;999.90;;;;;;;18.26;63.63;99088.63;10389786;22;20016;-80
2022/07/20 02:54:15;;;;;;;1999.90;999.90;;;;;;;18.21;63.35;99087.13;10390479;22;20038;-80
2022/07/20 02:58:18;;;;;;;1999.90;999.90;;;;;;;18.16;63.40;99099.59;10363119;22;20346;-79
2022/07/20 03:02:28;;;;;;;1999.90;999.90;;;;;;;17.95;64.30;99096.88;10377171;22;20433;-80
2022/07/20 03:06:44;;;;;;;1999.90;999.90;;;;;;;17.94;64.52;99103.03;10359594;22;20020;-81
2022/07/20 03:11:05;;;;;;;1999.90;999.90;;;;;;;17.96;65.66;99111.75;10384144;22;20271;-80
2022/07/20 03:15:20;;;;;;;1999.90;999.90;;;;;;;18.02;65.98;99108.88;10357946;22;20023;-80
2022/07/20 03:19:53;;;;;;;1999.90;999.90;;;;;;;18.00;65.62;99109.84;10378674;22;20102;-80
2022/07/20 03:24:23;;;;;;;1999.90;999.90;;;;;;;17.90;65.37;99111.97;10383801;22;20047;-80
2022/07/20 03:28:31;;;;;;;1999.90;999.90;;;;;;;17.93;65.48;99114.47;10384243;22;20406;-80
2022/07/20 03:32:41;;;;;;;1999.90;999.90;;;;;;;17.97;65.58;99113.44;10380204;22;20095;-80
2022/07/20 03:36:52;;;;;;;1999.90;999.90;;;;;;;17.96;65.32;99110.88;10354948;22;20023;-80
2022/07/20 03:40:58;;;;;;;1999.90;999.90;;;;;;;17.87;65.41;99124.38;10399165;22;20093;-79
2022/07/20 03:45:22;;;;;;;1999.90;999.90;;;;;;;17.94;65.74;99121.44;10371811;22;20024;-80
2022/07/20 03:49:30;;;;;;;1999.90;999.90;;;;;;;17.92;66.20;99125.03;10365769;22;20022;-79
2022/07/20 03:53:43;;;;;;;1999.90;999.90;;;;;;;17.92;66.76;99122.41;10382424;22;20032;-78
2022/07/20 03:57:46;;;;;;;1999.90;999.90;;;;;;;17.90;66.60;99119.00;10398359;22;20377;-78
2022/07/20 04:01:51;;;;;;;1999.90;999.90;;;;;;;17.87;66.48;99119.09;10361220;22;20027;-78
2022/07/20 04:05:54;;;;;;;1999.90;999.90;;;;;;;17.88;66.62;99119.06;10372629;22;20022;-78
2022/07/20 04:09:56;;;;;;;1999.90;999.90;;;;;;;17.85;66.84;99120.94;10355812;22;20104;-78
2022/07/20 04:14:00;;;;;;;1999.90;999.90;;;;;;;17.69;67.00;99124.16;10354292;22;20286;-78
2022/07/20 04:18:02;;;;;;;1999.90;999.90;;;;;;;17.63;66.76;99129.59;10350802;22;20104;-78
2022/07/20 04:22:05;;;;;;;1999.90;999.90;;;;;;;17.65;66.95;99134.78;10330516;22;20020;-78
2022/07/20 04:26:09;;;;;;;1999.90;999.90;;;;;;;17.75;66.59;99144.91;10330591;22;20481;-78
2022/07/20 04:30:14;;;;;;;1999.90;999.90;;;;;;;17.74;66.47;99139.72;10377954;22;20042;-78
2022/07/20 04:34:16;;;;;;;1999.90;999.90;;;;;;;17.86;66.80;99143.66;10327729;22;20027;-78
2022/07/20 04:38:17;;;;;;;1999.90;999.90;;;;;;;17.97;67.77;99155.50;10327963;22;20030;-77
2022/07/20 04:42:19;;;;;;;1999.90;999.90;;;;;;;18.03;65.90;99162.28;10354656;22;20019;-79
2022/07/20 04:46:23;;;;;;;1999.90;999.90;;;;;;;18.19;65.98;99160.75;10377699;22;20035;-79
2022/07/20 04:50:25;;;;;;;1999.90;999.90;;;;;;;18.40;66.11;99165.16;10355469;22;20020;-78
2022/07/20 04:54:28;;;;;;;1999.90;999.90;;;;;;;18.45;65.65;99179.91;10355016;22;20024;-78
2022/07/20 04:58:31;;;;;;;1999.90;999.90;;;;;;;18.39;66.14;99184.50;10328499;22;20038;-78
2022/07/20 05:02:32;;;;;;;1999.90;999.90;;;;;;;18.57;66.02;99188.16;10324619;22;20055;-78
2022/07/20 05:06:35;;;;;;;1999.90;999.90;;;;;;;18.81;66.23;99185.47;10354151;22;20015;-78
2022/07/20 05:10:37;;;;;;;1999.90;999.90;;;;;;;19.05;65.94;99191.50;10353974;22;20012;-78
2022/07/20 05:14:39;;;;;;;1999.90;999.90;;;;;;;19.20;64.58;99190.84;10354898;22;20221;-78
2022/07/20 05:18:41;;;;;;;;;;;;;;;19.41;65.09;99182.03;10350850;22;20050;-79
2022/07/20 05:22:45;;;;;;;1999.90;999.90;;;;;;;19.58;63.88;99200.63;10354096;22;19918;-78
2022/07/20 05:26:47;;;;;;;1999.90;999.90;;;;;;;19.78;63.64;99210.28;10355844;22;20019;-79
2022/07/20 05:30:49;;;;;;;1999.90;999.90;;;;;;;20.01;64.21;99209.22;10374981;22;20031;-78
2022/07/20 05:34:54;;;;;;;1999.90;999.90;;;;;;;20.23;62.86;99212.56;10381506;22;20019;-79
2022/07/20 05:38:57;;;;;;;1999.90;999.90;;;;;;;20.51;61.66;99216.59;10379866;22;20027;-79
2022/07/20 05:43:00;;;;;;;1999.90;999.90;;;;;;;20.82;60.74;99210.66;10381016;22;20488;-79
2022/07/20 05:47:06;;;;;;;1999.90;999.90;;;;;;;21.14;59.93;99209.06;10328205;22;20034;-78
2022/07/20 05:51:10;;;;;;;1999.90;999.90;;;;;;;21.50;59.54;99222.22;10381627;22;20011;-79
2022/07/20 05:55:32;;;;;;;;;;;;;;;21.85;60.06;99236.22;10333422;22;20024;-78
2022/07/20 05:59:34;;;;;;;1999.90;999.90;;;;;;;22.20;60.31;99244.97;10379256;22;19919;-78
2022/07/20 06:03:37;;;;;;;1999.90;999.90;;;;;;;22.66;59.50;99250.38;10323538;22;20690;-78
2022/07/20 06:07:43;;;;;;;1999.90;999.90;;;;;;;23.18;57.19;99237.69;10353043;22;20028;-78
2022/07/20 06:11:49;;;;;;;1999.90;999.90;;;;;;;23.72;54.26;99255.72;10353156;22;20011;-79
2022/07/20 06:15:53;;;;;;;1999.90;999.90;;;;;;;24.25;50.65;99268.34;10323143;22;20031;-78
2022/07/20 06:20:13;;;;;;;1999.90;999.90;;;;;;;24.72;49.06;99288.41;10328448;22;20034;-79
2022/07/20 06:24:18;;;;;;;1999.90;999.90;;;;;;;25.26;48.50;99293.75;10351989;22;20023;-79
2022/07/20 06:28:26;;;;;;;1999.90;999.90;;;;;;;25.78;48.68;99300.94;10353590;22;20022;-79
2022/07/20 06:32:38;;;;;;;1999.90;999.90;;;;;;;26.25;46.14;99312.75;10391546;22;20027;-79
2022/07/20 06:36:40;;;;;;;1999.90;999.90;;;;;;;26.82;45.77;99312.25;10366922;22;20031;-78
2022/07/20 06:40:42;;;;;;;1999.90;999.90;;;;;;;27.31;43.01;99317.53;10327190;22;20019;-79
2022/07/20 06:44:44;;;;;;;1999.90;999.90;;;;;;;27.66;41.93;99323.78;10326050;22;20066;-78
2022/07/20 06:48:47;;;;;;;1999.90;999.90;;;;;;;27.98;41.49;99326.63;10322652;22;20417;-78
2022/07/20 06:52:50;;;;;;;1999.90;999.90;;;;;;;28.24;40.93;99335.31;10394765;22;20473;-80
2022/07/20 06:56:54;;;;;;;1999.90;999.90;;;;;;;28.66;40.10;99335.56;10377958;22;20070;-78
2022/07/20 07:01:00;;;;;;;1999.90;999.90;;;;;;;28.77;38.78;99343.59;10350144;22;20274;-78
2022/07/20 07:05:04;;;;;;;1999.90;999.90;;;;;;;28.91;38.78;99342.53;10352577;22;20043;-79
2022/07/20 07:09:09;;;;;;;1999.90;999.90;;;;;;;29.07;38.45;99340.28;10352364;22;20023;-78
2022/07/20 07:13:11;;;;;;;1999.90;999.90;;;;;;;29.27;37.26;99330.66;10351691;22;20092;-78
2022/07/20 07:17:13;;;;;;;1999.90;999.90;;;;;;;29.39;36.96;99331.44;10345670;22;20024;-76
2022/07/20 07:21:15;;;;;;;1999.90;999.90;;;;;;;29.55;35.67;99314.97;10325785;22;20337;-78
2022/07/20 07:25:17;;;;;;;1999.90;999.90;;;;;;;29.62;35.50;99326.84;10353701;22;21003;-78
2022/07/20 07:29:19;;;;;;;1999.90;999.90;;;;;;;29.80;36.49;99352.06;10354769;22;20051;-77
2022/07/20 07:33:25;;;;;;;1999.90;999.90;;;;;;;29.52;38.89;99366.09;10377872;22;20051;-78
2022/07/20 07:37:30;;;;;;;1999.90;999.90;;;;;;;29.12;39.54;99355.97;10330718;22;20118;-77
2022/07/20 07:41:32;;;;;;;1999.90;999.90;;;;;;;28.61;40.94;99353.81;10355386;22;20023;-77
2022/07/20 07:45:36;;;;;;;1999.90;999.90;;;;;;;28.37;43.57;99361.06;10351322;22;20055;-78
2022/07/20 07:49:37;;;;;;;1999.90;999.90;;;;;;;28.21;43.00;99359.59;10382167;22;20433;-78
2022/07/20 07:53:41;;;;;;;1999.90;999.90;;;;;;;28.09;43.95;99368.53;10397158;22;20016;-77
2022/07/20 07:57:43;;;;;;;1999.90;999.90;;;;;;;28.32;44.10;99369.44;10381177;22;20146;-77
2022/07/20 08:01:46;;;;;;;1999.90;999.90;;;;;;;28.83;44.63;99377.84;10376732;22;20023;-78
2022/07/20 08:05:49;;;;;;;1999.90;999.90;;;;;;;28.86;44.28;99366.94;10371902;22;20019;-78
2022/07/20 08:09:52;;;;;;;1999.90;999.90;;;;;;;29.00;43.51;99359.63;10352916;22;20394;-79
2022/07/20 08:13:59;;;;;;;1999.90;999.90;;;;;;;29.01;43.76;99364.84;10352675;22;20023;-79
2022/07/20 08:18:04;;;;;;;1999.90;999.90;;;;;;;29.11;43.07;99371.16;10350211;22;20086;-78
2022/07/20 08:22:06;;;;;;;1999.90;999.90;;;;;;;29.30;43.01;99375.84;10396154;22;20016;-77
2022/07/20 08:26:12;;;;;;;1999.90;999.90;;;;;;;29.52;42.94;99374.97;10354231;22;20019;-78
2022/07/20 08:30:14;;;;;;;1999.90;999.90;;;;;;;29.92;42.50;99367.09;10376301;22;20055;-78
2022/07/20 08:34:39;;;;;;;1999.90;999.90;;;;;;;30.14;41.90;99376.88;10350721;22;20058;-78
2022/07/20 08:38:49;;;;;;;1999.90;999.90;;;;;;;30.41;41.70;99373.66;10352836;22;20569;-78
2022/07/20 08:42:57;;;;;;;1999.90;999.90;;;;;;;30.57;41.04;99375.84;10327018;22;20020;-76
2022/07/20 08:47:00;;;;;;;1999.90;999.90;;;;;;;30.68;40.55;99367.72;10373957;22;20386;-77
2022/07/20 08:51:03;;;;;;;1999.90;999.90;;;;;;;31.02;40.42;99368.28;10351858;22;20070;-78
2022/07/20 08:55:05;;;;;;;1999.90;999.90;;;;;;;31.45;40.87;99377.84;10371021;22;20051;-78
2022/07/20 08:59:24;;;;;;;1999.90;999.90;;;;;;;31.63;38.91;99394.97;10335000;22;20058;-78
2022/07/20 09:03:27;;;;;;;1999.90;999.90;;;;;;;31.64;38.49;99396.66;10370354;22;20073;-78
2022/07/20 09:07:48;;;;;;;1999.90;999.90;;;;;;;31.55;39.46;99398.34;10352127;22;20403;-78
2022/07/20 09:11:52;;;;;;;1999.90;999.90;;;;;;;31.71;38.95;99408.53;10324370;22;20023;-78
2022/07/20 09:15:59;;;;;;;1999.90;999.90;;;;;;;31.86;38.35;99412.53;10369794;22;20024;-79
2022/07/20 09:20:08;;;;;;;1999.90;999.90;;;;;;;32.08;39.23;99421.28;10348184;22;20020;-78
2022/07/20 09:24:19;;;;;;;1999.90;999.90;;;;;;;32.15;38.25;99417.03;10350604;22;20527;-79
2022/07/20 09:28:35;;;;;;;1999.90;999.90;;;;;;;32.35;37.07;99429.47;10350899;22;20027;-78
2022/07/20 09:32:57;;;;;;;1999.90;999.90;;;;;;;32.46;36.84;99434.66;10347483;22;20280;-78
2022/07/20 09:37:00;;;;;;;1999.90;999.90;;;;;;;32.34;37.09;99446.59;10368498;22;20019;-79
2022/07/20 09:41:19;;;;;;;1999.90;999.90;;;;;;;32.34;37.30;99440.38;10325130;22;20367;-78
2022/07/20 09:45:27;;;;;;;1999.90;999.90;;;;;;;32.22;36.19;99431.59;10373820;22;20028;-78
2022/07/20 09:49:45;;;;;;;1999.90;999.90;;;;;;;32.35;36.77;99442.06;10353432;22;20098;-78
2022/07/20 09:53:52;;;;;;;1999.90;999.90;;;;;;;32.27;35.81;99448.16;10350945;22;20019;-78
2022/07/20 09:57:58;;;;;;;1999.90;999.90;;;;;;;32.34;35.96;99445.75;10351028;22;20019;-78
2022/07/20 10:02:00;;;;;;;1999.90;999.90;;;;;;;32.45;34.36;99449.09;10322105;22;20027;-78
2022/07/20 10:06:05;;;;;;;1999.90;999.90;;;;;;;32.55;34.47;99446.41;10351287;22;20046;-77
2022/07/20 10:10:09;;;;;;;1999.90;999.90;;;;;;;32.42;33.13;99453.94;10391089;22;20019;-77
2022/07/20 10:14:18;;;;;;;1999.90;999.90;;;;;;;32.41;33.10;99458.47;10347534;22;20020;-77
2022/07/20 10:18:26;;;;;;;1999.90;999.90;;;;;;;32.50;34.22;99447.81;10346831;22;20028;-77
2022/07/20 10:22:31;;;;;;;1999.90;999.90;;;;;;;32.33;33.20;99452.97;10347078;22;20026;-77
2022/07/20 10:26:35;;;;;;;1999.90;999.90;;;;;;;32.40;34.02;99477.44;10374002;22;20501;-77
2022/07/20 10:30:51;;;;;;;1999.90;999.90;;;;;;;32.37;33.34;99467.81;10357258;22;20024;-76
2022/07/20 10:35:24;;;;;;;1999.90;999.90;;;;;;;32.56;33.65;99483.06;10347046;22;20345;-78
2022/07/20 10:39:57;;;;;;;1999.90;999.90;;;;;;;32.56;33.00;99460.72;10388025;22;20024;-77
2022/07/20 10:44:24;;;;;;;1999.90;999.90;;;;;;;32.48;32.88;99456.03;10300393;22;20019;-77
2022/07/20 10:48:27;;;;;;;1999.90;999.90;;;;;;;32.44;33.72;99442.03;10370585;22;20027;-77
2022/07/20 10:52:34;;;;;;;1999.90;999.90;;;;;;;32.34;32.49;99453.81;10345976;22;20023;-77
2022/07/20 10:56:36;;;;;;;1999.90;999.90;;;;;;;32.35;33.53;99452.81;10321983;22;20054;-78
2022/07/20 11:00:52;;;;;;;1999.90;999.90;;;;;;;32.62;34.06;99460.13;10345052;22;20385;-78
2022/07/20 11:04:54;;;;;;;1999.90;999.90;;;;;;;32.94;32.93;99473.22;10365734;22;20034;-77
2022/07/20 11:08:58;;;;;;;1999.90;999.90;;;;;;;32.87;33.43;99464.91;10375142;22;20088;-76
2022/07/20 11:13:06;;;;;;;1999.90;999.90;;;;;;;32.71;33.39;99476.25;10321822;22;20381;-77
2022/07/20 11:17:07;;;;;;;1999.90;999.90;;;;;;;32.79;33.58;99470.13;10342745;22;20024;-77
2022/07/20 11:21:11;;;;;;;1999.90;999.90;;;;;;;32.54;33.08;99462.69;10321832;22;20016;-77
2022/07/20 11:25:13;;;;;;;1999.90;999.90;;;;;;;32.28;34.71;99460.59;10347263;22;20020;-77
2022/07/20 11:29:16;;;;;;;1999.90;999.90;;;;;;;32.18;34.86;99462.44;10391687;22;20047;-76
2022/07/20 11:33:29;;;;;;;1999.90;999.90;;;;;;;32.29;33.84;99461.44;10368562;22;20026;-76
2022/07/20 11:37:30;;;;;;;1999.90;999.90;;;;;;;32.08;33.91;99450.81;10346904;22;20043;-76
2022/07/20 11:41:36;;;;;;;1999.90;999.90;;;;;;;31.84;34.25;99453.94;10374343;22;20015;-77
2022/07/20 11:45:38;;;;;;;1999.90;999.90;;;;;;;31.63;34.91;99445.13;10368218;22;20031;-76
2022/07/20 11:49:40;;;;;;;1999.90;999.90;;;;;;;31.79;34.61;99448.16;10373843;22;20298;-76
2022/07/20 11:53:41;;;;;;;1999.90;999.90;;;;;;;31.93;34.09;99428.06;10373077;22;20048;-77
2022/07/20 11:57:43;;;;;;;1999.90;999.90;;;;;;;32.26;34.21;99435.66;10345752;22;20034;-77
2022/07/20 12:01:45;;;;;;;1999.90;999.90;;;;;;;32.50;33.00;99427.19;10370500;22;20118;-77
2022/07/20 12:05:46;;;;;;;1999.90;999.90;;;;;;;32.44;32.82;99438.50;10390679;22;20027;-77
2022/07/20 12:09:48;;;;;;;1999.90;999.90;;;;;;;32.58;33.63;99429.13;10323438;22;20024;-77
2022/07/20 12:13:50;;;;;;;1999.90;999.90;;;;;;;32.75;32.72;99433.75;10347983;22;20667;-77
2022/07/20 12:17:52;;;;;;;1999.90;999.90;;;;;;;32.78;32.63;99427.22;10370984;22;20034;-77
2022/07/20 12:21:54;;;;;;;1999.90;999.90;;;;;;;32.73;32.16;99425.00;10298748;22;20098;-77
2022/07/20 12:25:56;;;;;;;1999.90;999.90;;;;;;;32.68;32.63;99420.06;10347504;22;20882;-77
2022/07/20 12:29:58;;;;;;;1999.90;999.90;;;;;;;32.53;32.74;99415.28;10322437;22;20023;-76
2022/07/20 12:34:01;;;;;;;1999.90;999.90;;;;;;;32.41;34.14;99398.47;10366872;22;20016;-76
2022/07/20 12:38:03;;;;;;;1999.90;999.90;;;;;;;32.20;33.57;99392.41;10373191;22;20657;-77
2022/07/20 12:42:18;;;;;;;1999.90;999.90;;;;;;;31.99;32.97;99400.66;10346549;22;20043;-76
2022/07/20 12:46:35;;;;;;;1999.90;999.90;;;;;;;31.91;33.85;99387.06;10370926;22;20023;-76
2022/07/20 12:50:37;;;;;;;1999.90;999.90;;;;;;;31.94;33.59;99371.50;10347440;22;20283;-76
2022/07/20 12:54:38;;;;;;;1999.90;999.90;;;;;;;32.08;33.76;99376.44;10346350;22;20082;-76
2022/07/20 12:59:01;;;;;;;1999.90;999.90;;;;;;;31.99;33.50;99387.22;10345550;22;20670;-73
2022/07/20 13:03:04;;;;;;;1999.90;999.90;;;;;;;31.92;34.17;99388.75;10341185;22;20038;-76
2022/07/20 13:07:05;;;;;;;1999.90;999.90;;;;;;;31.77;33.74;99397.25;10343944;22;20085;-76
2022/07/20 13:11:07;;;;;;;1999.90;999.90;;;;;;;31.65;34.70;99397.50;10371853;22;20081;-76
2022/07/20 13:15:09;;;;;;;1999.90;999.90;;;;;;;31.45;34.90;99402.03;10341364;22;20073;-76
2022/07/20 13:19:31;;;;;;;1999.90;999.90;;;;;;;31.33;35.31;99411.16;10348361;22;20448;-76
2022/07/20 13:23:32;;;;;;;1999.90;999.90;;;;;;;31.35;35.29;99412.72;10319188;22;20027;-76
2022/07/20 13:27:35;;;;;;;1999.90;999.90;;;;;;;31.32;35.91;99420.22;10371025;22;20119;-77
2022/07/20 13:31:38;;;;;;;1999.90;999.90;;;;;;;31.26;35.70;99416.25;10340172;22;20023;-76
2022/07/20 13:35:55;;;;;;;1999.90;999.90;;;;;;;31.17;35.58;99412.53;10343351;22;20031;-76
2022/07/20 13:39:57;;;;;;;1999.90;999.90;;;;;;;31.13;35.83;99419.13;10338851;22;20737;-76
2022/07/20 13:43:58;;;;;;;1999.90;999.90;;;;;;;31.20;35.61;99419.47;10372093;22;20405;-75
2022/07/20 13:48:00;;;;;;;1999.90;999.90;;;;;;;31.18;35.13;99402.66;10347289;22;20035;-76
2022/07/20 13:52:02;;;;;;;1999.90;999.90;;;;;;;31.04;34.82;99406.53;10374404;22;20016;-77
2022/07/20 13:56:26;;;;;;;1999.90;999.90;;;;;;;31.03;34.96;99387.91;10373034;22;20034;-77
2022/07/20 14:00:27;;;;;;;1999.90;999.90;;;;;;;31.06;34.63;99375.09;10371169;22;20023;-77
2022/07/20 14:04:29;;;;;;;1999.90;999.90;;;;;;;31.22;34.41;99371.88;10362377;22;20041;-76
2022/07/20 14:08:30;;;;;;;1999.90;999.90;;;;;;;31.78;34.54;99357.84;10344535;22;20103;-77
2022/07/20 14:12:32;;;;;;;1999.90;999.90;;;;;;;32.10;33.04;99346.75;10344313;22;20058;-77
2022/07/20 14:16:34;;;;;;;1999.90;999.90;;;;;;;32.21;32.44;99343.06;10366615;22;20059;-77
2022/07/20 14:20:37;;;;;;;1999.90;999.90;;;;;;;32.34;31.93;99344.47;10387677;22;20020;-77
2022/07/20 14:24:59;;;;;;;1999.90;999.90;;;;;;;32.66;32.34;99338.66;10347416;22;20455;-76
2022/07/20 14:29:03;;;;;;;1999.90;999.90;;;;;;;32.91;32.42;99333.63;10343287;22;20050;-77
2022/07/20 14:33:04;;;;;;;1999.90;999.90;;;;;;;32.68;30.69;99325.94;10366228;22;20428;-77
2022/07/20 14:37:08;;;;;;;1999.90;999.90;;;;;;;32.62;32.03;99313.06;10342969;22;20290;-76
2022/07/20 14:41:10;;;;;;;1999.90;999.90;;;;;;;32.52;31.60;99322.19;10370676;22;20031;-77
2022/07/20 14:45:12;;;;;;;1999.90;999.90;;;;;;;32.32;32.52;99329.47;10367662;22;20019;-77
2022/07/20 14:49:14;;;;;;;1999.90;999.90;;;;;;;32.11;33.37;99325.09;10317325;22;20024;-76
2022/07/20 14:53:16;;;;;;;1999.90;999.90;;;;;;;31.87;32.60;99332.78;10318478;22;20015;-76
2022/07/20 14:57:18;;;;;;;1999.90;999.90;;;;;;;31.66;32.97;99346.34;10344855;22;20613;-77
2022/07/20 15:01:19;;;;;;;1999.90;999.90;;;;;;;31.89;34.16;99344.25;10338209;22;20027;-76
2022/07/20 15:05:22;;;;;;;1999.90;999.90;;;;;;;32.46;33.60;99356.72;10318552;22;20020;-76
2022/07/20 15:09:24;;;;;;;1999.90;999.90;;;;;;;32.97;32.57;99362.59;10317831;22;20659;-76
2022/07/20 15:13:27;;;;;;;1999.90;999.90;;;;;;;33.41;32.56;99369.03;10342654;22;20031;-76
2022/07/20 15:17:28;;;;;;;1999.90;999.90;;;;;;;33.73;30.85;99370.31;10371717;22;20462;-76
2022/07/20 15:21:30;;;;;;;1999.90;999.90;;;;;;;33.85;30.26;99367.25;10345896;22;20022;-76
2022/07/20 15:25:32;;;;;;;1999.90;999.90;;;;;;;33.95;29.59;99361.78;10345732;22;20019;-76
2022/07/20 15:29:34;;;;;;;1999.90;999.90;;;;;;;33.80;30.71;99366.00;10346674;22;20023;-76
2022/07/20 15:33:35;;;;;;;1999.90;999.90;;;;;;;33.40;29.83;99361.94;10368186;22;20020;-76
2022/07/20 15:37:37;;;;;;;1999.90;999.90;;;;;;;33.06;30.74;99361.72;10346158;22;20286;-76
2022/07/20 15:41:38;;;;;;;1999.90;999.90;;;;;;;32.78;32.36;99365.38;10374481;22;20557;-76
2022/07/20 15:45:44;;;;;;;1999.90;999.90;;;;;;;32.44;31.73;99374.81;10345500;22;20034;-75
2022/07/20 15:49:47;;;;;;;1999.90;999.90;;;;;;;32.13;31.81;99378.69;10348081;22;20485;-76
2022/07/20 15:53:48;;;;;;;1999.90;999.90;;;;;;;31.73;32.94;99386.94;10348704;22;20438;-75
2022/07/20 15:57:50;;;;;;;1999.90;999.90;;;;;;;31.16;33.53;99375.94;10376951;22;20026;-75
2022/07/20 16:01:52;;;;;;;1999.90;999.90;;;;;;;30.71;34.31;99361.28;10350482;22;20051;-76
2022/07/20 16:05:53;;;;;;;1999.90;999.90;;;;;;;30.38;35.62;99339.94;10375044;22;20035;-75
2022/07/20 16:09:55;;;;;;;1999.90;999.90;;;;;;;30.05;35.77;99321.44;10376207;22;20046;-75
2022/07/20 16:13:56;;;;;;;1999.90;999.90;;;;;;;29.79;36.26;99324.44;10376386;22;20027;-75
2022/07/20 16:17:58;;;;;;;1999.90;999.90;;;;;;;29.52;36.88;99301.88;10370903;22;20063;-75
2022/07/20 16:21:59;;;;;;;1999.90;999.90;;;;;;;29.30;38.35;99321.50;10376241;22;20271;-75
2022/07/20 16:26:01;;;;;;;1999.90;999.90;;;;;;;29.11;39.08;99328.38;10348502;22;20015;-75
2022/07/20 16:30:04;;;;;;;1999.90;999.90;;;;;;;28.86;40.13;99324.16;10320392;22;20019;-75
2022/07/20 16:34:06;;;;;;;1999.90;999.90;;;;;;;28.65;38.65;99299.13;10375451;22;20024;-75
2022/07/20 16:38:07;;;;;;;1999.90;999.90;;;;;;;28.51;40.52;99284.19;10349139;22;20019;-75
2022/07/20 16:42:09;;;;;;;1999.90;999.90;;;;;;;28.34;40.60;99289.19;10348911;22;20016;-75
2022/07/20 16:46:11;;;;;;;1999.90;999.90;;;;;;;28.21;41.15;99290.16;10371567;22;20070;-75
2022/07/20 16:50:12;;;;;;;1999.90;999.90;;;;;;;27.97;42.11;99330.28;10375456;22;20024;-75
2022/07/20 16:54:14;;;;;;;1999.90;999.90;;;;;;;27.65;42.95;99361.25;10323585;22;20430;-75
2022/07/20 16:58:15;;;;;;;;;;;;;;;27.39;42.62;99360.47;10376564;22;20454;-75
2022/07/20 17:02:17;;;;;;;1999.90;999.90;;;;;;;27.25;43.10;99361.50;10344573;22;20018;-75
2022/07/20 17:06:18;;;;;;;1999.90;999.90;;;;;;;26.88;47.01;99395.28;10347927;22;20024;-76
2022/07/20 17:10:20;;;;;;;1999.90;999.90;;;;;;;26.44;49.48;99399.28;10376149;22;20015;-77
2022/07/20 17:14:21;;;;;;;1999.90;999.90;;;;;;;25.93;52.24;99401.00;10349640;22;20326;-77
2022/07/20 17:18:24;;;;;;;1999.90;999.90;;;;;;;25.57;54.44;99388.31;10374136;22;20030;-78
2022/07/20 17:22:25;;;;;;;1999.90;999.90;;;;;;;25.35;57.69;99356.97;10328901;22;20062;-78
2022/07/20 17:26:27;;;;;;;1999.90;999.90;;;;;;;25.02;60.84;99341.41;10397011;22;20698;-78
2022/07/20 17:30:29;;;;;;;1999.90;999.90;;;;;;;24.78;61.46;99357.09;10350892;22;20379;-78
2022/07/20 17:34:30;;;;;;;1999.90;999.90;;;;;;;24.62;65.29;99349.22;10329150;22;20008;-78
2022/07/20 17:38:32;;;;;;;1999.90;999.90;;;;;;;24.08;66.50;99441.00;10351705;22;20023;-77
2022/07/20 17:42:33;;;;;;;1999.90;999.90;;;;;;;23.54;66.38;99529.84;10351176;22;20026;-77
2022/07/20 17:46:35;;;;;;;1999.90;999.90;;;;;;;23.27;67.04;99503.88;10348549;22;20024;-78
2022/07/20 17:50:37;;;;;;;1999.90;999.90;;;;;;;23.20;68.89;99452.19;10328318;22;20023;-78
2022/07/20 17:54:39;;;;;;;1999.90;999.90;;;;;;;23.15;69.92;99372.09;10328586;22;20114;-77
2022/07/20 17:58:40;;;;;;;1999.90;999.90;;;;;;;23.07;71.00;99391.06;10377792;22;20334;-77
2022/07/20 18:02:43;;;;;;;1999.90;999.90;;;;;;;22.83;72.08;99395.09;10346256;22;20095;-77
2022/07/20 18:06:46;;;;;;;1999.90;999.90;;;;;;;22.54;73.61;99393.97;10349061;22;20062;-77